sensor_id;sensor_type;location;lat;lon;timestamp;P1;durP1;ratioP1;P2;durP2;ratioP2
177;SDS011;77;48.792;9.032;2023-08-30T00:00:28;9.20;;;7.60;;
177;SDS011;77;48.792;9.032;2023-08-30T00:02:54;9.85;;;7.75;;
177;SDS011;77;48.792;9.032;2023-08-30T00:05:19;11.20;;;8.00;;
177;SDS011;77;48.792;9.032;2023-08-30T00:07:44;9.90;;;7.90;;
177;SDS011;77;48.792;9.032;2023-08-30T00:10:10;12.37;;;8.30;;
177;SDS011;77;48.792;9.032;2023-08-30T00:12:35;11.33;;;7.60;;
177;SDS011;77;48.792;9.032;2023-08-30T00:15:00;9.20;;;7.53;;
177;SDS011;77;48.792;9.032;2023-08-30T00:17:25;8.90;;;7.30;;
177;SDS011;77;48.792;9.032;2023-08-30T00:19:52;11.13;;;7.70;;
177;SDS011;77;48.792;9.032;2023-08-30T00:22:17;14.43;;;9.10;;
177;SDS011;77;48.792;9.032;2023-08-30T00:24:42;9.93;;;7.70;;
177;SDS011;77;48.792;9.032;2023-08-30T00:27:07;10.80;;;8.25;;
177;SDS011;77;48.792;9.032;2023-08-30T00:29:32;11.05;;;7.93;;
177;SDS011;77;48.792;9.032;2023-08-30T00:31:58;10.63;;;7.90;;
177;SDS011;77;48.792;9.032;2023-08-30T00:34:23;11.65;;;8.15;;
177;SDS011;77;48.792;9.032;2023-08-30T00:36:49;10.43;;;7.80;;
177;SDS011;77;48.792;9.032;2023-08-30T00:39:14;10.13;;;7.90;;
177;SDS011;77;48.792;9.032;2023-08-30T00:41:39;10.97;;;8.27;;
177;SDS011;77;48.792;9.032;2023-08-30T00:44:05;9.53;;;7.80;;
177;SDS011;77;48.792;9.032;2023-08-30T00:46:30;9.63;;;7.73;;
177;SDS011;77;48.792;9.032;2023-08-30T00:48:55;9.97;;;8.10;;
177;SDS011;77;48.792;9.032;2023-08-30T00:51:21;10.87;;;7.47;;
177;SDS011;77;48.792;9.032;2023-08-30T00:53:47;11.93;;;7.60;;
177;SDS011;77;48.792;9.032;2023-08-30T00:56:13;11.00;;;7.50;;
177;SDS011;77;48.792;9.032;2023-08-30T00:58:38;11.47;;;7.60;;
177;SDS011;77;48.792;9.032;2023-08-30T01:01:03;9.00;;;7.43;;
177;SDS011;77;48.792;9.032;2023-08-30T01:03:28;9.70;;;7.40;;
177;SDS011;77;48.792;9.032;2023-08-30T01:05:54;11.10;;;7.53;;
177;SDS011;77;48.792;9.032;2023-08-30T01:08:19;10.93;;;7.00;;
177;SDS011;77;48.792;9.032;2023-08-30T01:10:47;10.52;;;7.63;;
177;SDS011;77;48.792;9.032;2023-08-30T01:13:16;11.47;;;7.97;;
177;SDS011;77;48.792;9.032;2023-08-30T01:15:43;8.57;;;6.80;;
177;SDS011;77;48.792;9.032;2023-08-30T01:18:08;10.50;;;8.07;;
177;SDS011;77;48.792;9.032;2023-08-30T01:20:34;9.03;;;7.17;;
177;SDS011;77;48.792;9.032;2023-08-30T01:23:00;11.43;;;8.40;;
177;SDS011;77;48.792;9.032;2023-08-30T01:25:31;11.80;;;7.80;;
177;SDS011;77;48.792;9.032;2023-08-30T01:27:59;10.23;;;7.60;;
177;SDS011;77;48.792;9.032;2023-08-30T01:30:26;9.93;;;7.63;;
177;SDS011;77;48.792;9.032;2023-08-30T01:32:52;10.37;;;7.90;;
177;SDS011;77;48.792;9.032;2023-08-30T01:35:17;10.37;;;7.80;;
177;SDS011;77;48.792;9.032;2023-08-30T01:37:43;12.03;;;8.63;;
177;SDS011;77;48.792;9.032;2023-08-30T01:40:09;12.83;;;8.20;;
177;SDS011;77;48.792;9.032;2023-08-30T01:42:35;13.03;;;8.73;;
177;SDS011;77;48.792;9.032;2023-08-30T01:45:02;15.57;;;8.67;;
177;SDS011;77;48.792;9.032;2023-08-30T01:47:28;11.00;;;8.67;;
177;SDS011;77;48.792;9.032;2023-08-30T01:49:53;11.23;;;8.70;;
177;SDS011;77;48.792;9.032;2023-08-30T01:52:18;11.80;;;8.70;;
177;SDS011;77;48.792;9.032;2023-08-30T01:54:44;11.00;;;8.70;;
177;SDS011;77;48.792;9.032;2023-08-30T01:57:09;10.23;;;8.20;;
177;SDS011;77;48.792;9.032;2023-08-30T01:59:35;13.90;;;8.20;;
177;SDS011;77;48.792;9.032;2023-08-30T02:02:01;14.18;;;8.23;;
177;SDS011;77;48.792;9.032;2023-08-30T02:04:26;11.83;;;9.13;;
177;SDS011;77;48.792;9.032;2023-08-30T02:06:53;12.63;;;9.43;;
177;SDS011;77;48.792;9.032;2023-08-30T02:09:21;13.97;;;9.53;;
177;SDS011;77;48.792;9.032;2023-08-30T02:11:48;11.60;;;9.10;;
177;SDS011;77;48.792;9.032;2023-08-30T02:14:14;12.10;;;8.87;;
177;SDS011;77;48.792;9.032;2023-08-30T02:16:40;12.00;;;9.37;;
177;SDS011;77;48.792;9.032;2023-08-30T02:19:07;17.40;;;9.30;;
177;SDS011;77;48.792;9.032;2023-08-30T02:21:32;11.40;;;8.77;;
177;SDS011;77;48.792;9.032;2023-08-30T02:23:58;11.77;;;9.13;;
177;SDS011;77;48.792;9.032;2023-08-30T02:26:23;10.60;;;8.40;;
177;SDS011;77;48.792;9.032;2023-08-30T02:28:48;11.10;;;9.57;;
177;SDS011;77;48.792;9.032;2023-08-30T02:31:13;11.83;;;9.10;;
177;SDS011;77;48.792;9.032;2023-08-30T02:33:38;10.90;;;8.50;;
177;SDS011;77;48.792;9.032;2023-08-30T02:36:05;11.70;;;9.07;;
177;SDS011;77;48.792;9.032;2023-08-30T02:38:30;11.77;;;8.70;;
177;SDS011;77;48.792;9.032;2023-08-30T02:40:55;12.07;;;8.60;;
177;SDS011;77;48.792;9.032;2023-08-30T02:43:21;12.30;;;8.57;;
177;SDS011;77;48.792;9.032;2023-08-30T02:45:46;12.10;;;9.47;;
177;SDS011;77;48.792;9.032;2023-08-30T02:48:12;12.23;;;8.90;;
177;SDS011;77;48.792;9.032;2023-08-30T02:50:37;12.80;;;8.77;;
177;SDS011;77;48.792;9.032;2023-08-30T02:53:03;10.87;;;8.43;;
177;SDS011;77;48.792;9.032;2023-08-30T02:55:28;11.63;;;8.60;;
177;SDS011;77;48.792;9.032;2023-08-30T02:57:55;10.60;;;8.07;;
177;SDS011;77;48.792;9.032;2023-08-30T03:00:20;9.70;;;7.90;;
177;SDS011;77;48.792;9.032;2023-08-30T03:02:45;11.20;;;8.50;;
177;SDS011;77;48.792;9.032;2023-08-30T03:05:10;9.90;;;8.30;;
177;SDS011;77;48.792;9.032;2023-08-30T03:07:35;13.70;;;9.27;;
177;SDS011;77;48.792;9.032;2023-08-30T03:10:02;13.63;;;9.70;;
177;SDS011;77;48.792;9.032;2023-08-30T03:12:27;13.13;;;9.40;;
177;SDS011;77;48.792;9.032;2023-08-30T03:14:53;12.40;;;9.90;;
177;SDS011;77;48.792;9.032;2023-08-30T03:17:19;13.13;;;10.20;;
177;SDS011;77;48.792;9.032;2023-08-30T03:19:44;12.77;;;9.93;;
177;SDS011;77;48.792;9.032;2023-08-30T03:22:09;15.95;;;10.70;;
177;SDS011;77;48.792;9.032;2023-08-30T03:24:34;12.77;;;9.73;;
177;SDS011;77;48.792;9.032;2023-08-30T03:27:01;12.47;;;10.10;;
177;SDS011;77;48.792;9.032;2023-08-30T03:29:26;14.87;;;9.67;;
177;SDS011;77;48.792;9.032;2023-08-30T03:31:51;12.23;;;9.80;;
177;SDS011;77;48.792;9.032;2023-08-30T03:34:16;17.40;;;9.97;;
177;SDS011;77;48.792;9.032;2023-08-30T03:36:41;12.07;;;9.83;;
177;SDS011;77;48.792;9.032;2023-08-30T03:39:06;12.30;;;9.40;;
177;SDS011;77;48.792;9.032;2023-08-30T03:41:32;12.30;;;9.13;;
177;SDS011;77;48.792;9.032;2023-08-30T03:43:58;16.23;;;10.00;;
177;SDS011;77;48.792;9.032;2023-08-30T03:46:23;11.67;;;9.70;;
177;SDS011;77;48.792;9.032;2023-08-30T03:48:48;14.40;;;8.93;;
177;SDS011;77;48.792;9.032;2023-08-30T03:51:13;11.43;;;9.13;;
177;SDS011;77;48.792;9.032;2023-08-30T03:53:39;13.77;;;9.70;;
177;SDS011;77;48.792;9.032;2023-08-30T03:56:04;11.00;;;8.87;;
177;SDS011;77;48.792;9.032;2023-08-30T03:58:29;12.67;;;9.10;;
177;SDS011;77;48.792;9.032;2023-08-30T04:00:55;14.30;;;9.33;;
177;SDS011;77;48.792;9.032;2023-08-30T04:03:21;11.90;;;9.20;;
177;SDS011;77;48.792;9.032;2023-08-30T04:05:46;12.13;;;9.80;;
177;SDS011;77;48.792;9.032;2023-08-30T04:08:11;13.80;;;8.60;;
177;SDS011;77;48.792;9.032;2023-08-30T04:10:37;11.43;;;9.07;;
177;SDS011;77;48.792;9.032;2023-08-30T04:13:02;11.73;;;9.00;;
177;SDS011;77;48.792;9.032;2023-08-30T04:15:28;11.83;;;9.20;;
177;SDS011;77;48.792;9.032;2023-08-30T04:17:54;12.20;;;9.17;;
177;SDS011;77;48.792;9.032;2023-08-30T04:20:19;12.00;;;8.70;;
177;SDS011;77;48.792;9.032;2023-08-30T04:22:44;13.97;;;9.37;;
177;SDS011;77;48.792;9.032;2023-08-30T04:25:10;14.07;;;9.47;;
177;SDS011;77;48.792;9.032;2023-08-30T04:27:35;12.13;;;8.80;;
177;SDS011;77;48.792;9.032;2023-08-30T04:30:00;15.10;;;8.60;;
177;SDS011;77;48.792;9.032;2023-08-30T04:32:25;13.73;;;9.27;;
177;SDS011;77;48.792;9.032;2023-08-30T04:34:52;13.17;;;9.30;;
177;SDS011;77;48.792;9.032;2023-08-30T04:37:17;13.30;;;9.50;;
177;SDS011;77;48.792;9.032;2023-08-30T04:39:42;17.53;;;9.87;;
177;SDS011;77;48.792;9.032;2023-08-30T04:42:07;12.90;;;9.50;;
177;SDS011;77;48.792;9.032;2023-08-30T04:44:32;12.73;;;9.30;;
177;SDS011;77;48.792;9.032;2023-08-30T04:46:57;21.97;;;11.73;;
177;SDS011;77;48.792;9.032;2023-08-30T04:49:23;13.83;;;11.20;;
177;SDS011;77;48.792;9.032;2023-08-30T04:51:49;14.57;;;10.87;;
177;SDS011;77;48.792;9.032;2023-08-30T04:54:14;14.50;;;11.70;;
177;SDS011;77;48.792;9.032;2023-08-30T04:56:39;15.23;;;10.83;;
177;SDS011;77;48.792;9.032;2023-08-30T04:59:05;13.60;;;11.03;;
177;SDS011;77;48.792;9.032;2023-08-30T05:01:30;16.17;;;11.00;;
177;SDS011;77;48.792;9.032;2023-08-30T05:03:55;13.87;;;11.37;;
177;SDS011;77;48.792;9.032;2023-08-30T05:06:20;13.90;;;11.00;;
177;SDS011;77;48.792;9.032;2023-08-30T05:08:47;14.50;;;11.17;;
177;SDS011;77;48.792;9.032;2023-08-30T05:11:12;14.70;;;10.87;;
177;SDS011;77;48.792;9.032;2023-08-30T05:13:37;13.37;;;10.30;;
177;SDS011;77;48.792;9.032;2023-08-30T05:16:02;14.83;;;11.50;;
177;SDS011;77;48.792;9.032;2023-08-30T05:18:27;14.30;;;11.63;;
177;SDS011;77;48.792;9.032;2023-08-30T05:20:52;14.97;;;11.87;;
177;SDS011;77;48.792;9.032;2023-08-30T05:23:18;14.90;;;11.53;;
177;SDS011;77;48.792;9.032;2023-08-30T05:25:44;16.37;;;11.93;;
177;SDS011;77;48.792;9.032;2023-08-30T05:28:09;14.20;;;11.80;;
177;SDS011;77;48.792;9.032;2023-08-30T05:30:34;16.13;;;12.00;;
177;SDS011;77;48.792;9.032;2023-08-30T05:33:00;15.03;;;12.07;;
177;SDS011;77;48.792;9.032;2023-08-30T05:35:25;16.13;;;11.67;;
177;SDS011;77;48.792;9.032;2023-08-30T05:37:50;17.73;;;11.67;;
177;SDS011;77;48.792;9.032;2023-08-30T05:40:15;14.53;;;11.27;;
177;SDS011;77;48.792;9.032;2023-08-30T05:42:42;17.03;;;12.70;;
177;SDS011;77;48.792;9.032;2023-08-30T05:45:07;15.93;;;12.83;;
177;SDS011;77;48.792;9.032;2023-08-30T05:47:32;15.80;;;11.83;;
177;SDS011;77;48.792;9.032;2023-08-30T05:49:57;16.00;;;11.80;;
177;SDS011;77;48.792;9.032;2023-08-30T05:52:22;17.00;;;12.43;;
177;SDS011;77;48.792;9.032;2023-08-30T05:54:48;13.73;;;10.80;;
177;SDS011;77;48.792;9.032;2023-08-30T05:57:13;13.97;;;11.13;;
177;SDS011;77;48.792;9.032;2023-08-30T05:59:39;17.70;;;11.60;;
177;SDS011;77;48.792;9.032;2023-08-30T06:02:05;13.00;;;10.13;;
177;SDS011;77;48.792;9.032;2023-08-30T06:04:30;14.00;;;11.47;;
177;SDS011;77;48.792;9.032;2023-08-30T06:06:55;14.30;;;11.60;;
177;SDS011;77;48.792;9.032;2023-08-30T06:09:20;13.87;;;10.87;;
177;SDS011;77;48.792;9.032;2023-08-30T06:11:46;16.33;;;11.90;;
177;SDS011;77;48.792;9.032;2023-08-30T06:14:11;14.13;;;10.00;;
177;SDS011;77;48.792;9.032;2023-08-30T06:16:37;14.10;;;10.70;;
177;SDS011;77;48.792;9.032;2023-08-30T06:19:02;15.83;;;11.40;;
177;SDS011;77;48.792;9.032;2023-08-30T06:21:27;14.63;;;11.23;;
177;SDS011;77;48.792;9.032;2023-08-30T06:23:53;14.37;;;10.27;;
177;SDS011;77;48.792;9.032;2023-08-30T06:26:18;14.07;;;10.63;;
177;SDS011;77;48.792;9.032;2023-08-30T06:28:43;11.70;;;9.53;;
177;SDS011;77;48.792;9.032;2023-08-30T06:31:08;17.73;;;10.70;;
177;SDS011;77;48.792;9.032;2023-08-30T06:33:35;14.40;;;10.43;;
177;SDS011;77;48.792;9.032;2023-08-30T06:36:00;12.47;;;10.00;;
177;SDS011;77;48.792;9.032;2023-08-30T06:38:25;12.87;;;10.20;;
177;SDS011;77;48.792;9.032;2023-08-30T06:40:50;12.57;;;9.73;;
177;SDS011;77;48.792;9.032;2023-08-30T06:43:15;12.80;;;9.47;;
177;SDS011;77;48.792;9.032;2023-08-30T06:45:41;12.60;;;9.27;;
177;SDS011;77;48.792;9.032;2023-08-30T06:48:07;13.40;;;9.90;;
177;SDS011;77;48.792;9.032;2023-08-30T06:50:34;11.97;;;9.33;;
177;SDS011;77;48.792;9.032;2023-08-30T06:52:59;12.13;;;9.40;;
177;SDS011;77;48.792;9.032;2023-08-30T06:55:24;12.73;;;9.07;;
177;SDS011;77;48.792;9.032;2023-08-30T06:57:50;11.60;;;9.03;;
177;SDS011;77;48.792;9.032;2023-08-30T07:00:15;12.70;;;9.20;;
177;SDS011;77;48.792;9.032;2023-08-30T07:02:40;11.63;;;8.80;;
177;SDS011;77;48.792;9.032;2023-08-30T07:05:06;12.60;;;9.20;;
177;SDS011;77;48.792;9.032;2023-08-30T07:07:32;11.60;;;8.77;;
177;SDS011;77;48.792;9.032;2023-08-30T07:09:58;12.80;;;9.20;;
177;SDS011;77;48.792;9.032;2023-08-30T07:12:23;15.50;;;9.43;;
177;SDS011;77;48.792;9.032;2023-08-30T07:14:48;14.00;;;8.80;;
177;SDS011;77;48.792;9.032;2023-08-30T07:17:13;11.60;;;8.77;;
177;SDS011;77;48.792;9.032;2023-08-30T07:19:38;14.33;;;8.90;;
177;SDS011;77;48.792;9.032;2023-08-30T07:22:04;11.67;;;8.43;;
177;SDS011;77;48.792;9.032;2023-08-30T07:24:30;12.27;;;8.13;;
177;SDS011;77;48.792;9.032;2023-08-30T07:26:55;11.17;;;8.03;;
177;SDS011;77;48.792;9.032;2023-08-30T07:29:20;10.37;;;8.20;;
177;SDS011;77;48.792;9.032;2023-08-30T07:31:46;9.67;;;7.70;;
177;SDS011;77;48.792;9.032;2023-08-30T07:34:11;11.43;;;8.30;;
177;SDS011;77;48.792;9.032;2023-08-30T07:36:36;12.03;;;7.97;;
177;SDS011;77;48.792;9.032;2023-08-30T07:39:01;13.00;;;8.00;;
177;SDS011;77;48.792;9.032;2023-08-30T07:41:28;9.53;;;7.70;;
177;SDS011;77;48.792;9.032;2023-08-30T07:43:53;10.43;;;8.57;;
177;SDS011;77;48.792;9.032;2023-08-30T07:46:18;12.97;;;8.10;;
177;SDS011;77;48.792;9.032;2023-08-30T07:48:43;9.80;;;7.63;;
177;SDS011;77;48.792;9.032;2023-08-30T07:51:08;12.30;;;8.47;;
177;SDS011;77;48.792;9.032;2023-08-30T07:53:33;9.87;;;7.43;;
177;SDS011;77;48.792;9.032;2023-08-30T07:55:58;11.03;;;7.63;;
177;SDS011;77;48.792;9.032;2023-08-30T07:58:25;9.40;;;7.27;;
177;SDS011;77;48.792;9.032;2023-08-30T08:00:50;11.00;;;7.90;;
177;SDS011;77;48.792;9.032;2023-08-30T08:03:15;9.43;;;7.40;;
177;SDS011;77;48.792;9.032;2023-08-30T08:05:41;11.43;;;7.93;;
177;SDS011;77;48.792;9.032;2023-08-30T08:08:06;12.87;;;8.80;;
177;SDS011;77;48.792;9.032;2023-08-30T08:10:31;12.70;;;8.47;;
177;SDS011;77;48.792;9.032;2023-08-30T08:12:57;12.90;;;10.17;;
177;SDS011;77;48.792;9.032;2023-08-30T08:15:23;13.47;;;9.27;;
177;SDS011;77;48.792;9.032;2023-08-30T08:17:48;11.13;;;8.53;;
177;SDS011;77;48.792;9.032;2023-08-30T08:20:14;14.30;;;9.40;;
177;SDS011;77;48.792;9.032;2023-08-30T08:22:39;12.70;;;9.40;;
177;SDS011;77;48.792;9.032;2023-08-30T08:25:04;14.10;;;9.00;;
177;SDS011;77;48.792;9.032;2023-08-30T08:27:29;13.37;;;8.90;;
177;SDS011;77;48.792;9.032;2023-08-30T08:29:54;12.60;;;9.07;;
177;SDS011;77;48.792;9.032;2023-08-30T08:32:21;12.60;;;9.10;;
177;SDS011;77;48.792;9.032;2023-08-30T08:34:46;16.33;;;9.27;;
177;SDS011;77;48.792;9.032;2023-08-30T08:37:11;12.70;;;8.43;;
177;SDS011;77;48.792;9.032;2023-08-30T08:39:36;11.23;;;8.93;;
177;SDS011;77;48.792;9.032;2023-08-30T08:42:02;12.10;;;8.97;;
177;SDS011;77;48.792;9.032;2023-08-30T08:44:29;10.50;;;8.00;;
177;SDS011;77;48.792;9.032;2023-08-30T08:46:56;10.30;;;8.07;;
177;SDS011;77;48.792;9.032;2023-08-30T08:49:22;12.60;;;9.10;;
177;SDS011;77;48.792;9.032;2023-08-30T08:51:47;10.47;;;8.00;;
177;SDS011;77;48.792;9.032;2023-08-30T08:54:13;12.70;;;8.57;;
177;SDS011;77;48.792;9.032;2023-08-30T08:56:39;12.50;;;8.20;;
177;SDS011;77;48.792;9.032;2023-08-30T08:59:04;10.07;;;7.27;;
177;SDS011;77;48.792;9.032;2023-08-30T09:01:30;10.73;;;7.30;;
177;SDS011;77;48.792;9.032;2023-08-30T09:03:55;10.80;;;7.80;;
177;SDS011;77;48.792;9.032;2023-08-30T09:06:22;11.13;;;7.03;;
177;SDS011;77;48.792;9.032;2023-08-30T09:08:47;9.80;;;6.53;;
177;SDS011;77;48.792;9.032;2023-08-30T09:11:12;9.50;;;7.23;;
177;SDS011;77;48.792;9.032;2023-08-30T09:13:37;9.20;;;7.00;;
177;SDS011;77;48.792;9.032;2023-08-30T09:16:02;10.03;;;6.43;;
177;SDS011;77;48.792;9.032;2023-08-30T09:18:35;10.00;;;6.47;;
177;SDS011;77;48.792;9.032;2023-08-30T09:21:04;8.70;;;6.37;;
177;SDS011;77;48.792;9.032;2023-08-30T09:23:31;8.03;;;6.00;;
177;SDS011;77;48.792;9.032;2023-08-30T09:25:56;7.70;;;5.70;;
177;SDS011;77;48.792;9.032;2023-08-30T09:28:21;7.87;;;6.10;;
177;SDS011;77;48.792;9.032;2023-08-30T09:30:48;7.27;;;5.57;;
177;SDS011;77;48.792;9.032;2023-08-30T09:33:14;8.80;;;6.00;;
177;SDS011;77;48.792;9.032;2023-08-30T09:35:45;8.40;;;6.30;;
177;SDS011;77;48.792;9.032;2023-08-30T09:38:15;8.90;;;6.47;;
177;SDS011;77;48.792;9.032;2023-08-30T09:40:42;8.43;;;5.83;;
177;SDS011;77;48.792;9.032;2023-08-30T09:43:07;7.50;;;5.30;;
177;SDS011;77;48.792;9.032;2023-08-30T09:45:32;6.60;;;4.50;;
177;SDS011;77;48.792;9.032;2023-08-30T09:47:57;8.70;;;5.00;;
177;SDS011;77;48.792;9.032;2023-08-30T09:50:25;6.27;;;5.07;;
177;SDS011;77;48.792;9.032;2023-08-30T09:52:50;6.43;;;4.80;;
177;SDS011;77;48.792;9.032;2023-08-30T09:55:15;6.63;;;4.80;;
177;SDS011;77;48.792;9.032;2023-08-30T09:57:42;6.80;;;4.93;;
177;SDS011;77;48.792;9.032;2023-08-30T10:00:08;6.93;;;4.87;;
177;SDS011;77;48.792;9.032;2023-08-30T10:02:33;8.20;;;5.10;;
177;SDS011;77;48.792;9.032;2023-08-30T10:04:59;7.10;;;5.10;;
177;SDS011;77;48.792;9.032;2023-08-30T10:07:24;7.10;;;5.17;;
177;SDS011;77;48.792;9.032;2023-08-30T10:09:50;7.40;;;6.00;;
177;SDS011;77;48.792;9.032;2023-08-30T10:12:15;7.97;;;6.17;;
177;SDS011;77;48.792;9.032;2023-08-30T10:14:42;8.70;;;5.80;;
177;SDS011;77;48.792;9.032;2023-08-30T10:17:07;8.83;;;5.43;;
177;SDS011;77;48.792;9.032;2023-08-30T10:19:34;7.77;;;5.53;;
177;SDS011;77;48.792;9.032;2023-08-30T10:22:00;7.83;;;5.80;;
177;SDS011;77;48.792;9.032;2023-08-30T10:24:25;11.70;;;5.70;;
177;SDS011;77;48.792;9.032;2023-08-30T10:26:51;7.63;;;5.60;;
177;SDS011;77;48.792;9.032;2023-08-30T10:29:17;7.00;;;5.30;;
177;SDS011;77;48.792;9.032;2023-08-30T10:31:44;6.97;;;5.53;;
177;SDS011;77;48.792;9.032;2023-08-30T10:34:13;6.47;;;5.53;;
177;SDS011;77;48.792;9.032;2023-08-30T10:36:38;7.10;;;5.00;;
177;SDS011;77;48.792;9.032;2023-08-30T10:39:10;10.33;;;6.03;;
177;SDS011;77;48.792;9.032;2023-08-30T10:41:36;7.63;;;5.77;;
177;SDS011;77;48.792;9.032;2023-08-30T10:44:01;8.27;;;5.40;;
177;SDS011;77;48.792;9.032;2023-08-30T10:46:29;7.97;;;5.97;;
177;SDS011;77;48.792;9.032;2023-08-30T10:48:56;8.53;;;5.57;;
177;SDS011;77;48.792;9.032;2023-08-30T10:51:22;7.37;;;5.03;;
177;SDS011;77;48.792;9.032;2023-08-30T10:53:59;6.50;;;4.87;;
177;SDS011;77;48.792;9.032;2023-08-30T10:56:28;7.00;;;5.00;;
177;SDS011;77;48.792;9.032;2023-08-30T10:58:53;6.27;;;5.23;;
177;SDS011;77;48.792;9.032;2023-08-30T11:01:18;8.73;;;5.97;;
177;SDS011;77;48.792;9.032;2023-08-30T11:03:43;8.53;;;5.90;;
177;SDS011;77;48.792;9.032;2023-08-30T11:06:14;7.10;;;5.10;;
177;SDS011;77;48.792;9.032;2023-08-30T11:08:39;11.40;;;5.40;;
177;SDS011;77;48.792;9.032;2023-08-30T11:11:05;7.93;;;5.03;;
177;SDS011;77;48.792;9.032;2023-08-30T11:13:30;8.70;;;5.10;;
177;SDS011;77;48.792;9.032;2023-08-30T11:15:59;7.13;;;4.93;;
177;SDS011;77;48.792;9.032;2023-08-30T11:18:24;6.23;;;5.07;;
177;SDS011;77;48.792;9.032;2023-08-30T11:20:53;6.90;;;5.00;;
177;SDS011;77;48.792;9.032;2023-08-30T11:23:19;6.80;;;4.90;;
177;SDS011;77;48.792;9.032;2023-08-30T11:25:49;10.10;;;6.23;;
177;SDS011;77;48.792;9.032;2023-08-30T11:28:20;10.73;;;6.83;;
177;SDS011;77;48.792;9.032;2023-08-30T11:30:46;8.83;;;6.20;;
177;SDS011;77;48.792;9.032;2023-08-30T11:33:11;18.03;;;7.20;;
177;SDS011;77;48.792;9.032;2023-08-30T11:35:36;9.47;;;7.67;;
177;SDS011;77;48.792;9.032;2023-08-30T11:38:02;10.00;;;7.10;;
177;SDS011;77;48.792;9.032;2023-08-30T11:40:28;11.23;;;7.70;;
177;SDS011;77;48.792;9.032;2023-08-30T11:42:53;8.40;;;6.80;;
177;SDS011;77;48.792;9.032;2023-08-30T11:45:19;10.97;;;6.70;;
177;SDS011;77;48.792;9.032;2023-08-30T11:47:44;10.83;;;6.40;;
177;SDS011;77;48.792;9.032;2023-08-30T11:50:09;9.10;;;6.77;;
177;SDS011;77;48.792;9.032;2023-08-30T11:52:34;9.33;;;7.03;;
177;SDS011;77;48.792;9.032;2023-08-30T11:54:59;8.93;;;6.80;;
177;SDS011;77;48.792;9.032;2023-08-30T11:57:26;10.40;;;7.20;;
177;SDS011;77;48.792;9.032;2023-08-30T11:59:51;9.90;;;6.90;;
177;SDS011;77;48.792;9.032;2023-08-30T12:02:17;11.77;;;6.53;;
177;SDS011;77;48.792;9.032;2023-08-30T12:04:42;8.17;;;6.40;;
177;SDS011;77;48.792;9.032;2023-08-30T12:07:07;9.57;;;6.43;;
177;SDS011;77;48.792;9.032;2023-08-30T12:09:33;8.27;;;6.50;;
177;SDS011;77;48.792;9.032;2023-08-30T12:12:04;9.13;;;6.40;;
177;SDS011;77;48.792;9.032;2023-08-30T12:14:33;7.70;;;6.20;;
177;SDS011;77;48.792;9.032;2023-08-30T12:16:59;8.47;;;6.27;;
177;SDS011;77;48.792;9.032;2023-08-30T12:19:24;9.97;;;6.00;;
177;SDS011;77;48.792;9.032;2023-08-30T12:21:52;8.03;;;6.13;;
177;SDS011;77;48.792;9.032;2023-08-30T12:24:17;7.75;;;5.57;;
177;SDS011;77;48.792;9.032;2023-08-30T12:26:43;8.73;;;6.30;;
177;SDS011;77;48.792;9.032;2023-08-30T12:29:08;8.30;;;6.18;;
177;SDS011;77;48.792;9.032;2023-08-30T12:31:34;8.77;;;6.20;;
177;SDS011;77;48.792;9.032;2023-08-30T12:33:59;8.20;;;6.20;;
177;SDS011;77;48.792;9.032;2023-08-30T12:36:25;13.83;;;5.60;;
177;SDS011;77;48.792;9.032;2023-08-30T12:38:50;7.97;;;5.90;;
177;SDS011;77;48.792;9.032;2023-08-30T12:41:15;8.70;;;6.27;;
177;SDS011;77;48.792;9.032;2023-08-30T12:43:40;8.20;;;5.80;;
177;SDS011;77;48.792;9.032;2023-08-30T12:46:05;7.70;;;5.97;;
177;SDS011;77;48.792;9.032;2023-08-30T12:48:32;7.30;;;5.53;;
177;SDS011;77;48.792;9.032;2023-08-30T12:50:57;9.10;;;6.10;;
177;SDS011;77;48.792;9.032;2023-08-30T12:53:22;7.97;;;5.40;;
177;SDS011;77;48.792;9.032;2023-08-30T12:55:47;7.90;;;5.50;;
177;SDS011;77;48.792;9.032;2023-08-30T12:58:12;7.63;;;5.13;;
177;SDS011;77;48.792;9.032;2023-08-30T13:00:37;7.00;;;5.23;;
177;SDS011;77;48.792;9.032;2023-08-30T13:03:03;9.00;;;6.30;;
177;SDS011;77;48.792;9.032;2023-08-30T13:05:29;9.80;;;5.40;;
177;SDS011;77;48.792;9.032;2023-08-30T13:07:54;8.00;;;5.77;;
177;SDS011;77;48.792;9.032;2023-08-30T13:10:20;7.53;;;5.40;;
177;SDS011;77;48.792;9.032;2023-08-30T13:12:45;7.33;;;5.70;;
177;SDS011;77;48.792;9.032;2023-08-30T13:15:10;8.97;;;5.50;;
177;SDS011;77;48.792;9.032;2023-08-30T13:17:35;7.60;;;5.90;;
177;SDS011;77;48.792;9.032;2023-08-30T13:20:00;6.40;;;5.20;;
177;SDS011;77;48.792;9.032;2023-08-30T13:22:27;8.30;;;5.40;;
177;SDS011;77;48.792;9.032;2023-08-30T13:24:52;7.03;;;4.93;;
177;SDS011;77;48.792;9.032;2023-08-30T13:27:18;6.60;;;4.67;;
177;SDS011;77;48.792;9.032;2023-08-30T13:29:43;5.97;;;4.63;;
177;SDS011;77;48.792;9.032;2023-08-30T13:32:08;8.17;;;5.40;;
177;SDS011;77;48.792;9.032;2023-08-30T13:34:33;8.33;;;5.53;;
177;SDS011;77;48.792;9.032;2023-08-30T13:36:58;8.10;;;4.67;;
177;SDS011;77;48.792;9.032;2023-08-30T13:39:25;9.40;;;5.00;;
177;SDS011;77;48.792;9.032;2023-08-30T13:41:50;5.70;;;4.73;;
177;SDS011;77;48.792;9.032;2023-08-30T13:44:15;6.10;;;4.80;;
177;SDS011;77;48.792;9.032;2023-08-30T13:46:41;12.80;;;5.20;;
177;SDS011;77;48.792;9.032;2023-08-30T13:49:06;8.10;;;5.53;;
177;SDS011;77;48.792;9.032;2023-08-30T13:51:31;7.07;;;5.20;;
177;SDS011;77;48.792;9.032;2023-08-30T13:53:56;6.90;;;5.13;;
177;SDS011;77;48.792;9.032;2023-08-30T13:56:23;8.60;;;5.07;;
177;SDS011;77;48.792;9.032;2023-08-30T13:58:48;6.97;;;5.30;;
177;SDS011;77;48.792;9.032;2023-08-30T14:01:14;8.57;;;5.37;;
177;SDS011;77;48.792;9.032;2023-08-30T14:03:39;6.33;;;5.00;;
177;SDS011;77;48.792;9.032;2023-08-30T14:06:04;9.50;;;5.70;;
177;SDS011;77;48.792;9.032;2023-08-30T14:08:30;8.20;;;5.00;;
177;SDS011;77;48.792;9.032;2023-08-30T14:10:55;6.83;;;5.37;;
177;SDS011;77;48.792;9.032;2023-08-30T14:13:21;7.70;;;5.30;;
177;SDS011;77;48.792;9.032;2023-08-30T14:15:47;6.70;;;5.20;;
177;SDS011;77;48.792;9.032;2023-08-30T14:18:12;7.63;;;5.50;;
177;SDS011;77;48.792;9.032;2023-08-30T14:20:37;9.10;;;5.40;;
177;SDS011;77;48.792;9.032;2023-08-30T14:23:02;6.43;;;5.20;;
177;SDS011;77;48.792;9.032;2023-08-30T14:25:28;7.53;;;5.47;;
177;SDS011;77;48.792;9.032;2023-08-30T14:27:53;8.68;;;5.55;;
177;SDS011;77;48.792;9.032;2023-08-30T14:30:19;7.60;;;5.60;;
177;SDS011;77;48.792;9.032;2023-08-30T14:32:45;7.90;;;6.00;;
177;SDS011;77;48.792;9.032;2023-08-30T14:35:10;8.15;;;6.13;;
177;SDS011;77;48.792;9.032;2023-08-30T14:37:35;9.43;;;6.80;;
177;SDS011;77;48.792;9.032;2023-08-30T14:40:00;8.67;;;6.60;;
177;SDS011;77;48.792;9.032;2023-08-30T14:42:25;7.77;;;5.97;;
177;SDS011;77;48.792;9.032;2023-08-30T14:44:51;8.17;;;6.10;;
177;SDS011;77;48.792;9.032;2023-08-30T14:47:17;8.03;;;5.60;;
177;SDS011;77;48.792;9.032;2023-08-30T14:49:42;11.50;;;6.10;;
177;SDS011;77;48.792;9.032;2023-08-30T14:52:08;8.07;;;5.43;;
177;SDS011;77;48.792;9.032;2023-08-30T14:54:33;8.00;;;6.17;;
177;SDS011;77;48.792;9.032;2023-08-30T14:56:58;9.30;;;6.00;;
177;SDS011;77;48.792;9.032;2023-08-30T14:59:23;5.63;;;4.47;;
177;SDS011;77;48.792;9.032;2023-08-30T15:01:48;7.47;;;5.17;;
177;SDS011;77;48.792;9.032;2023-08-30T15:04:15;6.47;;;5.13;;
177;SDS011;77;48.792;9.032;2023-08-30T15:06:40;7.53;;;5.10;;
177;SDS011;77;48.792;9.032;2023-08-30T15:09:05;7.30;;;5.60;;
177;SDS011;77;48.792;9.032;2023-08-30T15:11:30;6.63;;;5.00;;
177;SDS011;77;48.792;9.032;2023-08-30T15:13:55;6.30;;;4.70;;
177;SDS011;77;48.792;9.032;2023-08-30T15:16:20;6.00;;;4.60;;
177;SDS011;77;48.792;9.032;2023-08-30T15:18:46;7.38;;;4.82;;
177;SDS011;77;48.792;9.032;2023-08-30T15:21:12;5.90;;;4.70;;
177;SDS011;77;48.792;9.032;2023-08-30T15:23:37;8.17;;;4.97;;
177;SDS011;77;48.792;9.032;2023-08-30T15:26:03;6.80;;;4.60;;
177;SDS011;77;48.792;9.032;2023-08-30T15:28:28;7.30;;;4.77;;
177;SDS011;77;48.792;9.032;2023-08-30T15:30:53;6.32;;;4.80;;
177;SDS011;77;48.792;9.032;2023-08-30T15:33:18;6.43;;;4.83;;
177;SDS011;77;48.792;9.032;2023-08-30T15:35:44;7.97;;;4.57;;
177;SDS011;77;48.792;9.032;2023-08-30T15:38:10;6.93;;;4.57;;